sensor_id;sensor_type;location;lat;lon;timestamp;P1;durP1;ratioP1;P2;durP2;ratioP2
62633;SDS011;48704;50.534;6.442;2024-01-10T00:09:47;9.43;;;2.78;;
62633;SDS011;48704;50.534;6.442;2024-01-10T00:26:44;4.35;;;2.30;;
62633;SDS011;48704;50.534;6.442;2024-01-10T00:29:10;6.40;;;3.20;;
62633;SDS011;48704;50.534;6.442;2024-01-10T00:34:03;7.13;;;3.03;;
62633;SDS011;48704;50.534;6.442;2024-01-10T00:36:29;7.90;;;3.00;;
62633;SDS011;48704;50.534;6.442;2024-01-10T00:43:57;9.63;;;4.07;;
62633;SDS011;48704;50.534;6.442;2024-01-10T00:48:50;8.23;;;3.70;;
62633;SDS011;48704;50.534;6.442;2024-01-10T00:53:56;7.00;;;2.67;;
62633;SDS011;48704;50.534;6.442;2024-01-10T01:03:44;7.20;;;2.97;;
62633;SDS011;48704;50.534;6.442;2024-01-10T01:06:37;6.10;;;2.60;;
62633;SDS011;48704;50.534;6.442;2024-01-10T01:09:03;7.85;;;3.08;;
62633;SDS011;48704;50.534;6.442;2024-01-10T01:14:24;9.07;;;3.75;;
62633;SDS011;48704;50.534;6.442;2024-01-10T01:19:55;11.23;;;3.97;;
62633;SDS011;48704;50.534;6.442;2024-01-10T01:38:24;6.78;;;3.60;;
62633;SDS011;48704;50.534;6.442;2024-01-10T02:02:36;7.75;;;3.25;;
62633;SDS011;48704;50.534;6.442;2024-01-10T02:05:20;10.15;;;3.90;;
62633;SDS011;48704;50.534;6.442;2024-01-10T02:07:58;8.30;;;3.35;;
62633;SDS011;48704;50.534;6.442;2024-01-10T02:11:14;7.25;;;3.45;;
62633;SDS011;48704;50.534;6.442;2024-01-10T02:14:03;9.63;;;3.33;;
62633;SDS011;48704;50.534;6.442;2024-01-10T02:17:08;7.57;;;3.30;;
62633;SDS011;48704;50.534;6.442;2024-01-10T02:51:45;6.65;;;3.17;;
62633;SDS011;48704;50.534;6.442;2024-01-10T02:54:55;5.72;;;3.05;;
62633;SDS011;48704;50.534;6.442;2024-01-10T03:05:07;8.60;;;3.88;;
62633;SDS011;48704;50.534;6.442;2024-01-10T03:08:04;15.40;;;4.03;;
62633;SDS011;48704;50.534;6.442;2024-01-10T03:14:40;5.53;;;2.78;;
62633;SDS011;48704;50.534;6.442;2024-01-10T03:17:31;7.78;;;3.35;;
62633;SDS011;48704;50.534;6.442;2024-01-10T03:20:18;5.70;;;3.33;;
62633;SDS011;48704;50.534;6.442;2024-01-10T03:23:22;7.22;;;2.97;;
62633;SDS011;48704;50.534;6.442;2024-01-10T03:33:07;7.32;;;3.13;;
62633;SDS011;48704;50.534;6.442;2024-01-10T03:53:25;8.15;;;3.45;;
62633;SDS011;48704;50.534;6.442;2024-01-10T04:04:27;5.38;;;2.92;;
62633;SDS011;48704;50.534;6.442;2024-01-10T04:07:30;7.97;;;3.95;;
62633;SDS011;48704;50.534;6.442;2024-01-10T04:09:55;7.93;;;3.60;;
62633;SDS011;48704;50.534;6.442;2024-01-10T04:14:49;10.23;;;3.72;;
62633;SDS011;48704;50.534;6.442;2024-01-10T04:17:19;9.55;;;3.30;;
62633;SDS011;48704;50.534;6.442;2024-01-10T04:24:39;7.07;;;3.65;;
62633;SDS011;48704;50.534;6.442;2024-01-10T04:27:05;8.80;;;4.43;;
62633;SDS011;48704;50.534;6.442;2024-01-10T04:29:30;14.77;;;3.85;;
62633;SDS011;48704;50.534;6.442;2024-01-10T04:31:55;8.90;;;3.75;;
62633;SDS011;48704;50.534;6.442;2024-01-10T04:34:21;10.93;;;4.43;;
62633;SDS011;48704;50.534;6.442;2024-01-10T04:36:47;12.75;;;4.63;;
62633;SDS011;48704;50.534;6.442;2024-01-10T04:39:13;7.82;;;3.55;;
62633;SDS011;48704;50.534;6.442;2024-01-10T04:41:38;8.15;;;3.90;;
62633;SDS011;48704;50.534;6.442;2024-01-10T04:57:46;10.82;;;3.60;;
62633;SDS011;48704;50.534;6.442;2024-01-10T05:00:13;12.27;;;4.20;;
62633;SDS011;48704;50.534;6.442;2024-01-10T05:02:38;7.18;;;3.75;;
62633;SDS011;48704;50.534;6.442;2024-01-10T05:05:21;9.75;;;4.20;;
62633;SDS011;48704;50.534;6.442;2024-01-10T05:07:49;10.23;;;4.03;;
62633;SDS011;48704;50.534;6.442;2024-01-10T05:10:15;11.15;;;4.13;;
62633;SDS011;48704;50.534;6.442;2024-01-10T05:12:41;9.57;;;3.63;;
62633;SDS011;48704;50.534;6.442;2024-01-10T05:15:07;10.75;;;4.63;;
62633;SDS011;48704;50.534;6.442;2024-01-10T05:17:33;12.80;;;4.57;;
62633;SDS011;48704;50.534;6.442;2024-01-10T05:19:58;11.82;;;5.22;;
62633;SDS011;48704;50.534;6.442;2024-01-10T05:22:24;9.18;;;3.78;;
62633;SDS011;48704;50.534;6.442;2024-01-10T05:27:17;8.45;;;4.43;;
62633;SDS011;48704;50.534;6.442;2024-01-10T05:29:42;11.35;;;4.78;;
62633;SDS011;48704;50.534;6.442;2024-01-10T05:32:08;8.43;;;4.25;;
62633;SDS011;48704;50.534;6.442;2024-01-10T05:34:34;13.65;;;4.93;;
62633;SDS011;48704;50.534;6.442;2024-01-10T05:36:59;11.18;;;5.22;;
62633;SDS011;48704;50.534;6.442;2024-01-10T05:39:25;14.13;;;6.22;;
62633;SDS011;48704;50.534;6.442;2024-01-10T05:41:50;11.82;;;4.93;;
62633;SDS011;48704;50.534;6.442;2024-01-10T05:44:15;10.45;;;4.70;;
62633;SDS011;48704;50.534;6.442;2024-01-10T05:46:41;9.45;;;4.45;;
62633;SDS011;48704;50.534;6.442;2024-01-10T06:00:57;9.68;;;4.40;;
62633;SDS011;48704;50.534;6.442;2024-01-10T06:03:33;12.02;;;4.65;;
62633;SDS011;48704;50.534;6.442;2024-01-10T06:06:07;16.63;;;5.65;;
62633;SDS011;48704;50.534;6.442;2024-01-10T06:08:40;11.88;;;4.38;;
62633;SDS011;48704;50.534;6.442;2024-01-10T06:11:05;10.70;;;5.15;;
62633;SDS011;48704;50.534;6.442;2024-01-10T06:13:42;12.25;;;5.18;;
62633;SDS011;48704;50.534;6.442;2024-01-10T06:16:34;16.23;;;4.82;;
62633;SDS011;48704;50.534;6.442;2024-01-10T06:22:57;13.02;;;5.85;;
62633;SDS011;48704;50.534;6.442;2024-01-10T06:25:53;11.35;;;5.53;;
62633;SDS011;48704;50.534;6.442;2024-01-10T06:29:26;18.05;;;4.78;;
62633;SDS011;48704;50.534;6.442;2024-01-10T06:35:25;12.15;;;4.60;;
62633;SDS011;48704;50.534;6.442;2024-01-10T06:38:08;18.25;;;5.50;;
62633;SDS011;48704;50.534;6.442;2024-01-10T06:41:07;11.45;;;5.25;;
62633;SDS011;48704;50.534;6.442;2024-01-10T06:44:12;13.32;;;5.65;;
62633;SDS011;48704;50.534;6.442;2024-01-10T06:46:49;10.07;;;4.60;;
62633;SDS011;48704;50.534;6.442;2024-01-10T06:49:28;14.13;;;5.38;;
62633;SDS011;48704;50.534;6.442;2024-01-10T06:58:58;12.85;;;5.47;;
62633;SDS011;48704;50.534;6.442;2024-01-10T07:01:36;15.13;;;5.70;;
62633;SDS011;48704;50.534;6.442;2024-01-10T07:07:54;13.00;;;4.72;;
62633;SDS011;48704;50.534;6.442;2024-01-10T07:10:45;10.45;;;5.13;;
62633;SDS011;48704;50.534;6.442;2024-01-10T07:13:25;17.63;;;7.32;;
62633;SDS011;48704;50.534;6.442;2024-01-10T07:15:53;12.20;;;5.38;;
62633;SDS011;48704;50.534;6.442;2024-01-10T07:18:34;13.77;;;5.60;;
62633;SDS011;48704;50.534;6.442;2024-01-10T07:21:18;16.52;;;6.03;;
62633;SDS011;48704;50.534;6.442;2024-01-10T07:30:20;15.10;;;5.50;;
62633;SDS011;48704;50.534;6.442;2024-01-10T07:49:35;12.27;;;5.53;;
62633;SDS011;48704;50.534;6.442;2024-01-10T07:52:08;14.13;;;6.53;;
62633;SDS011;48704;50.534;6.442;2024-01-10T07:54:35;18.55;;;6.53;;
62633;SDS011;48704;50.534;6.442;2024-01-10T07:57:01;14.70;;;5.38;;
62633;SDS011;48704;50.534;6.442;2024-01-10T07:59:29;16.15;;;6.15;;
62633;SDS011;48704;50.534;6.442;2024-01-10T08:01:59;19.98;;;7.68;;
62633;SDS011;48704;50.534;6.442;2024-01-10T08:04:26;12.40;;;6.18;;
62633;SDS011;48704;50.534;6.442;2024-01-10T08:06:52;13.88;;;6.32;;
62633;SDS011;48704;50.534;6.442;2024-01-10T08:09:17;16.23;;;6.32;;
62633;SDS011;48704;50.534;6.442;2024-01-10T08:11:44;17.40;;;6.68;;
62633;SDS011;48704;50.534;6.442;2024-01-10T08:14:10;18.63;;;6.15;;
62633;SDS011;48704;50.534;6.442;2024-01-10T08:16:37;12.98;;;6.00;;
62633;SDS011;48704;50.534;6.442;2024-01-10T08:19:03;13.57;;;5.97;;
62633;SDS011;48704;50.534;6.442;2024-01-10T08:21:31;16.55;;;6.72;;
62633;SDS011;48704;50.534;6.442;2024-01-10T08:23:59;12.32;;;5.68;;
62633;SDS011;48704;50.534;6.442;2024-01-10T08:26:28;15.63;;;6.50;;
62633;SDS011;48704;50.534;6.442;2024-01-10T08:28:56;19.63;;;6.32;;
62633;SDS011;48704;50.534;6.442;2024-01-10T08:31:22;16.13;;;6.32;;
62633;SDS011;48704;50.534;6.442;2024-01-10T08:33:59;15.57;;;5.90;;
62633;SDS011;48704;50.534;6.442;2024-01-10T08:36:36;14.63;;;6.07;;
62633;SDS011;48704;50.534;6.442;2024-01-10T08:39:10;19.98;;;6.80;;
62633;SDS011;48704;50.534;6.442;2024-01-10T08:41:39;14.88;;;6.57;;
62633;SDS011;48704;50.534;6.442;2024-01-10T08:44:11;18.92;;;6.53;;
62633;SDS011;48704;50.534;6.442;2024-01-10T08:46:42;17.63;;;7.55;;
62633;SDS011;48704;50.534;6.442;2024-01-10T08:49:10;20.10;;;7.05;;
62633;SDS011;48704;50.534;6.442;2024-01-10T08:51:36;17.13;;;6.50;;
62633;SDS011;48704;50.534;6.442;2024-01-10T08:54:11;22.13;;;7.05;;
62633;SDS011;48704;50.534;6.442;2024-01-10T08:56:44;16.88;;;6.03;;
62633;SDS011;48704;50.534;6.442;2024-01-10T08:59:11;14.55;;;7.18;;
62633;SDS011;48704;50.534;6.442;2024-01-10T09:01:37;19.25;;;7.25;;
62633;SDS011;48704;50.534;6.442;2024-01-10T09:04:06;17.67;;;7.72;;
62633;SDS011;48704;50.534;6.442;2024-01-10T09:06:35;16.35;;;6.07;;
62633;SDS011;48704;50.534;6.442;2024-01-10T09:09:00;14.55;;;7.13;;
62633;SDS011;48704;50.534;6.442;2024-01-10T09:11:26;16.33;;;6.47;;
62633;SDS011;48704;50.534;6.442;2024-01-10T09:13:51;18.25;;;5.90;;
62633;SDS011;48704;50.534;6.442;2024-01-10T09:16:17;19.00;;;6.95;;
62633;SDS011;48704;50.534;6.442;2024-01-10T09:18:50;14.93;;;6.80;;
62633;SDS011;48704;50.534;6.442;2024-01-10T09:21:19;20.10;;;6.90;;
62633;SDS011;48704;50.534;6.442;2024-01-10T09:23:45;13.77;;;7.05;;
62633;SDS011;48704;50.534;6.442;2024-01-10T09:26:12;14.68;;;6.78;;
62633;SDS011;48704;50.534;6.442;2024-01-10T09:28:40;17.17;;;6.43;;
62633;SDS011;48704;50.534;6.442;2024-01-10T09:31:05;15.02;;;6.78;;
62633;SDS011;48704;50.534;6.442;2024-01-10T09:33:32;18.02;;;7.78;;
62633;SDS011;48704;50.534;6.442;2024-01-10T09:36:00;22.20;;;8.50;;
62633;SDS011;48704;50.534;6.442;2024-01-10T09:38:25;17.00;;;7.40;;
62633;SDS011;48704;50.534;6.442;2024-01-10T09:40:51;17.08;;;7.65;;
62633;SDS011;48704;50.534;6.442;2024-01-10T09:43:23;22.45;;;9.07;;
62633;SDS011;48704;50.534;6.442;2024-01-10T09:45:49;20.65;;;8.18;;
62633;SDS011;48704;50.534;6.442;2024-01-10T09:48:18;17.88;;;6.97;;
62633;SDS011;48704;50.534;6.442;2024-01-10T09:50:46;16.95;;;7.55;;
62633;SDS011;48704;50.534;6.442;2024-01-10T09:53:21;18.38;;;8.63;;
62633;SDS011;48704;50.534;6.442;2024-01-10T09:55:51;22.13;;;8.98;;
62633;SDS011;48704;50.534;6.442;2024-01-10T09:58:24;16.70;;;6.80;;
62633;SDS011;48704;50.534;6.442;2024-01-10T10:00:50;22.80;;;9.27;;
62633;SDS011;48704;50.534;6.442;2024-01-10T10:03:17;16.88;;;8.70;;
62633;SDS011;48704;50.534;6.442;2024-01-10T10:05:43;18.67;;;7.63;;
62633;SDS011;48704;50.534;6.442;2024-01-10T10:08:11;14.93;;;7.07;;
62633;SDS011;48704;50.534;6.442;2024-01-10T10:10:48;17.20;;;7.93;;
62633;SDS011;48704;50.534;6.442;2024-01-10T10:13:26;13.90;;;6.45;;
62633;SDS011;48704;50.534;6.442;2024-01-10T10:16:02;16.38;;;6.85;;
62633;SDS011;48704;50.534;6.442;2024-01-10T10:18:29;19.17;;;7.05;;
62633;SDS011;48704;50.534;6.442;2024-01-10T10:21:06;15.95;;;6.80;;
62633;SDS011;48704;50.534;6.442;2024-01-10T10:23:34;18.95;;;7.32;;
62633;SDS011;48704;50.534;6.442;2024-01-10T10:26:02;18.17;;;8.52;;
62633;SDS011;48704;50.534;6.442;2024-01-10T10:28:35;15.20;;;8.38;;
62633;SDS011;48704;50.534;6.442;2024-01-10T10:31:00;15.90;;;7.40;;
62633;SDS011;48704;50.534;6.442;2024-01-10T10:33:26;20.05;;;8.60;;
62633;SDS011;48704;50.534;6.442;2024-01-10T10:35:52;15.23;;;6.90;;
62633;SDS011;48704;50.534;6.442;2024-01-10T10:38:17;17.55;;;7.70;;
62633;SDS011;48704;50.534;6.442;2024-01-10T10:40:42;23.00;;;8.23;;
62633;SDS011;48704;50.534;6.442;2024-01-10T10:43:10;23.25;;;10.48;;
62633;SDS011;48704;50.534;6.442;2024-01-10T10:45:39;24.08;;;10.27;;
62633;SDS011;48704;50.534;6.442;2024-01-10T10:48:12;22.58;;;8.68;;
62633;SDS011;48704;50.534;6.442;2024-01-10T10:50:47;14.68;;;6.88;;
62633;SDS011;48704;50.534;6.442;2024-01-10T10:53:28;21.30;;;6.97;;
62633;SDS011;48704;50.534;6.442;2024-01-10T10:55:55;18.45;;;8.15;;
62633;SDS011;48704;50.534;6.442;2024-01-10T10:58:22;20.50;;;9.93;;
62633;SDS011;48704;50.534;6.442;2024-01-10T11:00:47;23.95;;;8.80;;
62633;SDS011;48704;50.534;6.442;2024-01-10T11:03:14;20.30;;;8.65;;
62633;SDS011;48704;50.534;6.442;2024-01-10T11:05:40;25.42;;;8.38;;
62633;SDS011;48704;50.534;6.442;2024-01-10T11:08:06;15.02;;;7.32;;
62633;SDS011;48704;50.534;6.442;2024-01-10T11:10:35;13.57;;;7.25;;
62633;SDS011;48704;50.534;6.442;2024-01-10T11:21:18;21.88;;;8.23;;
62633;SDS011;48704;50.534;6.442;2024-01-10T11:23:56;19.40;;;7.93;;
62633;SDS011;48704;50.534;6.442;2024-01-10T11:26:25;22.40;;;8.82;;
62633;SDS011;48704;50.534;6.442;2024-01-10T11:28:51;17.30;;;7.95;;
62633;SDS011;48704;50.534;6.442;2024-01-10T11:31:20;20.48;;;8.10;;
62633;SDS011;48704;50.534;6.442;2024-01-10T11:33:53;16.73;;;7.68;;
62633;SDS011;48704;50.534;6.442;2024-01-10T11:36:21;24.35;;;9.05;;
62633;SDS011;48704;50.534;6.442;2024-01-10T11:41:25;19.55;;;8.35;;
62633;SDS011;48704;50.534;6.442;2024-01-10T11:46:33;19.67;;;8.73;;
62633;SDS011;48704;50.534;6.442;2024-01-10T11:48:59;20.20;;;8.00;;
62633;SDS011;48704;50.534;6.442;2024-01-10T11:51:26;24.77;;;8.88;;
62633;SDS011;48704;50.534;6.442;2024-01-10T11:53:51;17.08;;;8.75;;
62633;SDS011;48704;50.534;6.442;2024-01-10T11:56:18;19.55;;;8.20;;
62633;SDS011;48704;50.534;6.442;2024-01-10T11:59:00;18.73;;;8.65;;
62633;SDS011;48704;50.534;6.442;2024-01-10T12:01:29;22.52;;;9.07;;
62633;SDS011;48704;50.534;6.442;2024-01-10T12:03:55;18.13;;;9.75;;
62633;SDS011;48704;50.534;6.442;2024-01-10T12:06:21;17.08;;;8.45;;
62633;SDS011;48704;50.534;6.442;2024-01-10T12:08:48;22.40;;;9.10;;
62633;SDS011;48704;50.534;6.442;2024-01-10T12:11:14;17.27;;;8.80;;
62633;SDS011;48704;50.534;6.442;2024-01-10T12:13:41;18.25;;;8.13;;
62633;SDS011;48704;50.534;6.442;2024-01-10T12:16:06;15.82;;;9.10;;
62633;SDS011;48704;50.534;6.442;2024-01-10T12:18:32;21.23;;;9.40;;
62633;SDS011;48704;50.534;6.442;2024-01-10T12:20:58;18.15;;;7.95;;
62633;SDS011;48704;50.534;6.442;2024-01-10T12:23:25;19.73;;;9.23;;
62633;SDS011;48704;50.534;6.442;2024-01-10T12:25:56;17.27;;;8.50;;
62633;SDS011;48704;50.534;6.442;2024-01-10T12:28:21;18.67;;;8.70;;
62633;SDS011;48704;50.534;6.442;2024-01-10T12:30:48;20.52;;;8.68;;
62633;SDS011;48704;50.534;6.442;2024-01-10T12:33:13;18.55;;;8.95;;
62633;SDS011;48704;50.534;6.442;2024-01-10T12:35:38;21.83;;;9.02;;
62633;SDS011;48704;50.534;6.442;2024-01-10T12:38:07;20.02;;;9.13;;
62633;SDS011;48704;50.534;6.442;2024-01-10T12:40:35;20.73;;;10.13;;
62633;SDS011;48704;50.534;6.442;2024-01-10T12:43:04;19.02;;;8.68;;
62633;SDS011;48704;50.534;6.442;2024-01-10T12:45:30;20.48;;;8.38;;
62633;SDS011;48704;50.534;6.442;2024-01-10T12:47:57;15.55;;;8.10;;
62633;SDS011;48704;50.534;6.442;2024-01-10T12:50:22;21.60;;;9.65;;
62633;SDS011;48704;50.534;6.442;2024-01-10T12:52:50;18.27;;;8.00;;
62633;SDS011;48704;50.534;6.442;2024-01-10T12:55:15;16.40;;;8.95;;
62633;SDS011;48704;50.534;6.442;2024-01-10T12:57:42;18.65;;;8.45;;
62633;SDS011;48704;50.534;6.442;2024-01-10T13:00:08;17.45;;;8.45;;
62633;SDS011;48704;50.534;6.442;2024-01-10T13:02:35;19.45;;;8.05;;
62633;SDS011;48704;50.534;6.442;2024-01-10T13:05:05;19.50;;;9.02;;
62633;SDS011;48704;50.534;6.442;2024-01-10T13:07:37;16.63;;;8.45;;
62633;SDS011;48704;50.534;6.442;2024-01-10T13:10:04;18.23;;;8.38;;
62633;SDS011;48704;50.534;6.442;2024-01-10T13:12:29;17.65;;;7.82;;
62633;SDS011;48704;50.534;6.442;2024-01-10T13:14:55;16.80;;;8.45;;
62633;SDS011;48704;50.534;6.442;2024-01-10T13:17:21;17.60;;;8.27;;
62633;SDS011;48704;50.534;6.442;2024-01-10T13:19:47;19.52;;;10.00;;
62633;SDS011;48704;50.534;6.442;2024-01-10T13:22:16;20.75;;;8.43;;
62633;SDS011;48704;50.534;6.442;2024-01-10T13:25:07;18.25;;;8.52;;
62633;SDS011;48704;50.534;6.442;2024-01-10T13:27:38;15.77;;;8.40;;
62633;SDS011;48704;50.534;6.442;2024-01-10T13:31:05;17.63;;;8.02;;
62633;SDS011;48704;50.534;6.442;2024-01-10T13:33:30;18.83;;;8.38;;
62633;SDS011;48704;50.534;6.442;2024-01-10T13:35:55;19.00;;;8.68;;
62633;SDS011;48704;50.534;6.442;2024-01-10T13:38:21;20.60;;;8.52;;
62633;SDS011;48704;50.534;6.442;2024-01-10T13:40:48;16.70;;;8.43;;
62633;SDS011;48704;50.534;6.442;2024-01-10T13:43:15;18.00;;;7.20;;
62633;SDS011;48704;50.534;6.442;2024-01-10T13:45:40;15.45;;;8.05;;
62633;SDS011;48704;50.534;6.442;2024-01-10T13:48:06;20.65;;;8.88;;
62633;SDS011;48704;50.534;6.442;2024-01-10T13:50:32;18.30;;;7.93;;
62633;SDS011;48704;50.534;6.442;2024-01-10T13:52:58;18.65;;;8.32;;
62633;SDS011;48704;50.534;6.442;2024-01-10T13:55:23;20.95;;;11.10;;
62633;SDS011;48704;50.534;6.442;2024-01-10T13:57:49;23.48;;;11.30;;
62633;SDS011;48704;50.534;6.442;2024-01-10T14:00:15;19.33;;;10.05;;
62633;SDS011;48704;50.534;6.442;2024-01-10T14:02:41;22.10;;;10.20;;
62633;SDS011;48704;50.534;6.442;2024-01-10T14:05:07;19.75;;;10.25;;
62633;SDS011;48704;50.534;6.442;2024-01-10T14:07:34;18.70;;;9.98;;
62633;SDS011;48704;50.534;6.442;2024-01-10T14:10:00;24.15;;;10.32;;
62633;SDS011;48704;50.534;6.442;2024-01-10T14:12:26;19.40;;;10.23;;
62633;SDS011;48704;50.534;6.442;2024-01-10T14:14:52;21.45;;;10.45;;
62633;SDS011;48704;50.534;6.442;2024-01-10T14:17:17;25.10;;;13.00;;
62633;SDS011;48704;50.534;6.442;2024-01-10T14:19:43;28.83;;;12.13;;
62633;SDS011;48704;50.534;6.442;2024-01-10T14:22:09;25.88;;;12.93;;
62633;SDS011;48704;50.534;6.442;2024-01-10T14:24:34;27.75;;;13.23;;
62633;SDS011;48704;50.534;6.442;2024-01-10T14:27:00;37.15;;;19.17;;
62633;SDS011;48704;50.534;6.442;2024-01-10T14:29:25;37.55;;;17.73;;
62633;SDS011;48704;50.534;6.442;2024-01-10T14:31:50;31.75;;;15.77;;
62633;SDS011;48704;50.534;6.442;2024-01-10T14:34:16;28.13;;;13.77;;
62633;SDS011;48704;50.534;6.442;2024-01-10T14:36:41;31.92;;;13.73;;
62633;SDS011;48704;50.534;6.442;2024-01-10T14:39:06;28.75;;;13.85;;
62633;SDS011;48704;50.534;6.442;2024-01-10T14:41:32;26.33;;;14.00;;
62633;SDS011;48704;50.534;6.442;2024-01-10T14:43:59;28.58;;;13.73;;
62633;SDS011;48704;50.534;6.442;2024-01-10T14:46:24;26.73;;;13.30;;
62633;SDS011;48704;50.534;6.442;2024-01-10T14:48:50;32.35;;;14.07;;
62633;SDS011;48704;50.534;6.442;2024-01-10T14:51:15;25.45;;;11.88;;
62633;SDS011;48704;50.534;6.442;2024-01-10T14:53:41;26.35;;;12.57;;
62633;SDS011;48704;50.534;6.442;2024-01-10T14:56:06;27.90;;;12.43;;
62633;SDS011;48704;50.534;6.442;2024-01-10T14:58:32;29.90;;;12.98;;
62633;SDS011;48704;50.534;6.442;2024-01-10T15:00:58;32.80;;;14.52;;
62633;SDS011;48704;50.534;6.442;2024-01-10T15:03:23;28.55;;;12.80;;
62633;SDS011;48704;50.534;6.442;2024-01-10T15:05:50;33.10;;;13.63;;
62633;SDS011;48704;50.534;6.442;2024-01-10T15:08:16;36.85;;;15.38;;
62633;SDS011;48704;50.534;6.442;2024-01-10T15:10:42;29.05;;;13.43;;
62633;SDS011;48704;50.534;6.442;2024-01-10T15:13:11;40.20;;;14.40;;
62633;SDS011;48704;50.534;6.442;2024-01-10T15:15:37;31.00;;;14.70;;
62633;SDS011;48704;50.534;6.442;2024-01-10T15:18:03;34.80;;;14.38;;
62633;SDS011;48704;50.534;6.442;2024-01-10T15:20:29;31.05;;;14.98;;
62633;SDS011;48704;50.534;6.442;2024-01-10T15:22:55;29.33;;;15.07;;
62633;SDS011;48704;50.534;6.442;2024-01-10T15:25:21;29.42;;;13.15;;
62633;SDS011;48704;50.534;6.442;2024-01-10T15:27:46;33.70;;;15.35;;
62633;SDS011;48704;50.534;6.442;2024-01-10T15:30:13;31.52;;;13.85;;
62633;SDS011;48704;50.534;6.442;2024-01-10T15:32:38;30.42;;;13.85;;
62633;SDS011;48704;50.534;6.442;2024-01-10T15:35:03;29.63;;;14.30;;
62633;SDS011;48704;50.534;6.442;2024-01-10T15:37:29;30.08;;;13.18;;
62633;SDS011;48704;50.534;6.442;2024-01-10T15:39:55;29.85;;;13.82;;
62633;SDS011;48704;50.534;6.442;2024-01-10T15:42:20;52.25;;;18.90;;
62633;SDS011;48704;50.534;6.442;2024-01-10T15:44:46;28.45;;;14.68;;
62633;SDS011;48704;50.534;6.442;2024-01-10T15:47:11;33.90;;;16.23;;
62633;SDS011;48704;50.534;6.442;2024-01-10T15:49:36;34.50;;;14.80;;
62633;SDS011;48704;50.534;6.442;2024-01-10T15:52:02;40.10;;;15.27;;
62633;SDS011;48704;50.534;6.442;2024-01-10T15:54:27;38.88;;;16.33;;
62633;SDS011;48704;50.534;6.442;2024-01-10T15:56:53;39.03;;;16.52;;
62633;SDS011;48704;50.534;6.442;2024-01-10T15:59:18;35.55;;;15.13;;
62633;SDS011;48704;50.534;6.442;2024-01-10T16:01:44;31.20;;;11.93;;
62633;SDS011;48704;50.534;6.442;2024-01-10T16:04:09;24.55;;;11.63;;
62633;SDS011;48704;50.534;6.442;2024-01-10T16:06:35;25.77;;;12.00;;
62633;SDS011;48704;50.534;6.442;2024-01-10T16:09:01;31.45;;;13.50;;
62633;SDS011;48704;50.534;6.442;2024-01-10T16:11:28;27.23;;;12.20;;
62633;SDS011;48704;50.534;6.442;2024-01-10T16:13:55;30.17;;;12.57;;
62633;SDS011;48704;50.534;6.442;2024-01-10T16:16:26;29.45;;;12.23;;
62633;SDS011;48704;50.534;6.442;2024-01-10T16:18:51;28.05;;;12.48;;
62633;SDS011;48704;50.534;6.442;2024-01-10T16:21:19;29.27;;;12.75;;
62633;SDS011;48704;50.534;6.442;2024-01-10T16:23:46;27.67;;;12.98;;
62633;SDS011;48704;50.534;6.442;2024-01-10T16:26:11;27.83;;;12.55;;
62633;SDS011;48704;50.534;6.442;2024-01-10T16:28:37;31.48;;;11.43;;
62633;SDS011;48704;50.534;6.442;2024-01-10T16:31:02;30.60;;;12.38;;
62633;SDS011;48704;50.534;6.442;2024-01-10T16:33:27;23.88;;;10.80;;
62633;SDS011;48704;50.534;6.442;2024-01-10T16:35:53;24.65;;;11.10;;
62633;SDS011;48704;50.534;6.442;2024-01-10T16:38:18;31.45;;;12.52;;
62633;SDS011;48704;50.534;6.442;2024-01-10T16:40:44;31.85;;;12.07;;
62633;SDS011;48704;50.534;6.442;2024-01-10T16:43:09;33.20;;;11.15;;
62633;SDS011;48704;50.534;6.442;2024-01-10T16:45:34;26.55;;;12.48;;
62633;SDS011;48704;50.534;6.442;2024-01-10T16:48:00;26.42;;;12.32;;
62633;SDS011;48704;50.534;6.442;2024-01-10T16:50:25;31.10;;;12.70;;
62633;SDS011;48704;50.534;6.442;2024-01-10T16:52:55;26.33;;;11.60;;
62633;SDS011;48704;50.534;6.442;2024-01-10T16:55:22;29.02;;;11.50;;
62633;SDS011;48704;50.534;6.442;2024-01-10T16:57:48;26.83;;;11.93;;
62633;SDS011;48704;50.534;6.442;2024-01-10T17:00:14;30.00;;;11.90;;
62633;SDS011;48704;50.534;6.442;2024-01-10T17:02:43;26.20;;;11.82;;
62633;SDS011;48704;50.534;6.442;2024-01-10T17:05:09;29.08;;;11.00;;
62633;SDS011;48704;50.534;6.442;2024-01-10T17:07:34;27.40;;;11.88;;
62633;SDS011;48704;50.534;6.442;2024-01-10T17:10:01;26.27;;;13.63;;
62633;SDS011;48704;50.534;6.442;2024-01-10T17:12:28;30.45;;;12.90;;
62633;SDS011;48704;50.534;6.442;2024-01-10T17:14:54;25.92;;;11.70;;
62633;SDS011;48704;50.534;6.442;2024-01-10T17:17:20;28.52;;;12.40;;
62633;SDS011;48704;50.534;6.442;2024-01-10T17:19:45;26.27;;;11.23;;
62633;SDS011;48704;50.534;6.442;2024-01-10T17:22:10;25.25;;;12.07;;
62633;SDS011;48704;50.534;6.442;2024-01-10T17:24:36;26.95;;;11.50;;
62633;SDS011;48704;50.534;6.442;2024-01-10T17:27:01;30.15;;;13.20;;
62633;SDS011;48704;50.534;6.442;2024-01-10T17:29:26;30.98;;;12.23;;
62633;SDS011;48704;50.534;6.442;2024-01-10T17:31:51;25.98;;;12.20;;
62633;SDS011;48704;50.534;6.442;2024-01-10T17:34:17;25.67;;;10.93;;
62633;SDS011;48704;50.534;6.442;2024-01-10T17:36:42;31.60;;;11.90;;
62633;SDS011;48704;50.534;6.442;2024-01-10T17:39:07;34.38;;;13.07;;
62633;SDS011;48704;50.534;6.442;2024-01-10T17:41:33;33.97;;;13.93;;
62633;SDS011;48704;50.534;6.442;2024-01-10T17:43:58;28.30;;;13.98;;
62633;SDS011;48704;50.534;6.442;2024-01-10T17:46:24;31.63;;;12.65;;
62633;SDS011;48704;50.534;6.442;2024-01-10T17:48:49;27.60;;;12.27;;
62633;SDS011;48704;50.534;6.442;2024-01-10T17:51:16;34.45;;;14.63;;
62633;SDS011;48704;50.534;6.442;2024-01-10T17:53:46;31.15;;;13.82;;
62633;SDS011;48704;50.534;6.442;2024-01-10T17:56:14;34.30;;;15.73;;
62633;SDS011;48704;50.534;6.442;2024-01-10T17:58:40;44.22;;;20.33;;
62633;SDS011;48704;50.534;6.442;2024-01-10T18:01:05;26.73;;;14.20;;
62633;SDS011;48704;50.534;6.442;2024-01-10T18:03:30;33.42;;;14.60;;
62633;SDS011;48704;50.534;6.442;2024-01-10T18:05:56;33.85;;;16.48;;
62633;SDS011;48704;50.534;6.442;2024-01-10T18:08:22;31.65;;;13.80;;
62633;SDS011;48704;50.534;6.442;2024-01-10T18:10:47;31.25;;;12.98;;
62633;SDS011;48704;50.534;6.442;2024-01-10T18:13:16;35.05;;;13.63;;
62633;SDS011;48704;50.534;6.442;2024-01-10T18:15:41;36.58;;;13.35;;
62633;SDS011;48704;50.534;6.442;2024-01-10T18:18:07;34.75;;;13.80;;
62633;SDS011;48704;50.534;6.442;2024-01-10T18:20:32;27.63;;;12.18;;
62633;SDS011;48704;50.534;6.442;2024-01-10T18:22:58;28.95;;;12.82;;
62633;SDS011;48704;50.534;6.442;2024-01-10T18:25:24;33.55;;;12.93;;
62633;SDS011;48704;50.534;6.442;2024-01-10T18:27:49;32.67;;;13.27;;
62633;SDS011;48704;50.534;6.442;2024-01-10T18:30:14;27.60;;;12.90;;
62633;SDS011;48704;50.534;6.442;2024-01-10T18:32:40;32.15;;;13.45;;
62633;SDS011;48704;50.534;6.442;2024-01-10T18:35:05;32.78;;;14.20;;
62633;SDS011;48704;50.534;6.442;2024-01-10T18:37:31;41.40;;;15.52;;
62633;SDS011;48704;50.534;6.442;2024-01-10T18:39:56;27.27;;;13.18;;
62633;SDS011;48704;50.534;6.442;2024-01-10T18:42:22;34.08;;;13.73;;
62633;SDS011;48704;50.534;6.442;2024-01-10T18:44:47;32.45;;;13.70;;
62633;SDS011;48704;50.534;6.442;2024-01-10T18:47:15;35.97;;;12.80;;
62633;SDS011;48704;50.534;6.442;2024-01-10T18:49:41;33.90;;;14.63;;
62633;SDS011;48704;50.534;6.442;2024-01-10T18:52:06;33.42;;;14.50;;
62633;SDS011;48704;50.534;6.442;2024-01-10T18:54:32;33.00;;;13.48;;
62633;SDS011;48704;50.534;6.442;2024-01-10T18:56:58;31.40;;;14.00;;